• Join FlightAware (Why Join?)
  • Login
  • US Flag 
06:32PM EDT


 

Airport Tracker/Info


-or-


 

Live Flight TrackerFlight Track Log ✈ QXE2348 ✈ 01-Feb-2014 ✈ KSEA - KMSO

Flight Track Log - Related Links

Times and Time Zones

All times are in EST time to prevent confusion due to time zone crossing. See the QXE2348 flight status page for this flight to view local times or setup timezone preferences in your user account.

Time Position Orientation Groundspeed Altitude Reporting Facility
EST Latitude Longitude Course Direction KTS MPH feet Rate Location/Type
01:30PM 47.4167 -121.5384 90° East  Level FlightAware Approximate
01:31PM 47.4167 -121.4109 90° East  Level FlightAware Approximate
01:32PM 47.4167 -121.2833 90° East  Level FlightAware Approximate
01:33PM 47.4167 -121.1558 90° East  Level FlightAware Approximate
01:34PM 47.4167 -121.0283 90° East  Level FlightAware Approximate
01:35PM 47.4122 -120.9011 95° East  Level FlightAware Approximate
01:36PM 47.4051 -120.7740 95° East  Level FlightAware Approximate
01:37PM 47.3995 -120.6465 90° East  Level Estimated
01:38PM 47.4246 -120.5242 73° East  Level FlightAware Approximate
01:39PM 47.4181 -120.3968 78° East  Level Estimated
01:40PM 47.4115 -120.2693 90° East  Level Estimated
01:41PM 47.4491 -120.1542 64° Northeast  Level FlightAware Approximate
01:42PM 47.4412 -120.0268 90° East  Level Estimated
01:43PM 47.4455 -119.8991 87° East  Level FlightAware Approximate
01:44PM 47.4496 -119.7713 87° East  Level FlightAware Approximate
01:45PM 47.4536 -119.6436 87° East  Level FlightAware Approximate
01:46PM 47.4574 -119.5158 87° East  Level FlightAware Approximate
01:47PM 47.4611 -119.3880 88° East  Level FlightAware Approximate
01:48PM 47.4646 -119.2602 88° East  Level FlightAware Approximate
01:49PM 47.4540 -119.1332 88° East  Level Estimated
01:50PM 47.4578 -119.0055 87° East  Level FlightAware Approximate
01:51PM 47.4614 -118.8777 88° East  Level FlightAware Approximate
01:52PM 47.4649 -118.7498 88° East  Level FlightAware Approximate
01:53PM 47.4682 -118.6220 88° East  Level FlightAware Approximate
01:54PM 47.4714 -118.4941 88° East  Level FlightAware Approximate
01:55PM 47.4744 -118.3689 88° East  Level FlightAware Approximate
01:56PM 47.4772 -118.2436 88° East  Level FlightAware Approximate
01:57PM 47.4799 -118.1166 88° East  Level FlightAware Approximate
01:58PM 47.4826 -117.9896 88° East  Level FlightAware Approximate
01:59PM 47.4827 -117.8626 91° East  Level FlightAware Approximate
02:00PM 47.4818 -117.7355 91° East  Level FlightAware Approximate
02:01PM 47.4807 -117.6084 91° East  Level FlightAware Approximate
02:02PM 47.4795 -117.4813 91° East  Level FlightAware Approximate
02:03PM 47.4781 -117.3542 91° East  Level FlightAware Approximate
02:04PM 47.4766 -117.2271 91° East  Level FlightAware Approximate
02:05PM 47.4749 -117.1001 91° East  Level FlightAware Approximate
02:06PM 47.4731 -116.9730 91° East  Level FlightAware Approximate
02:07PM 47.4711 -116.8459 91° East  Level FlightAware Approximate
02:08PM 47.4691 -116.7189 91° East  Level FlightAware Approximate
02:09PM 47.4668 -116.5919 91° East  Level FlightAware Approximate
02:10PM 47.4633 -116.4649 92° East  Level FlightAware Approximate
02:11PM 47.4596 -116.3380 92° East  Level FlightAware Approximate
02:12PM 47.4557 -116.2111 93° East  Level FlightAware Approximate
02:13PM 47.4516 -116.0842 93° East  Level FlightAware Approximate
02:14PM 47.4500 -115.9572 90° East  Level FlightAware Approximate
02:15PM 47.4500 -115.8302 90° East  Level FlightAware Approximate
02:16PM 47.4500 -115.7032 90° East  Level FlightAware Approximate
02:17PM 47.4350 -115.5807 113° Southeast  Level FlightAware Approximate
02:18PM 47.4032 -115.4627 110° East  Level FlightAware Approximate
02:19PM 47.3735 -115.3437 110° East  Level FlightAware Approximate
02:20PM 47.3436 -115.2243 110° East  Level FlightAware Approximate
02:21PM 47.3138 -115.1050 110° East  Level FlightAware Approximate
02:22PM 47.2809 -114.9877 106° East  Level FlightAware Approximate
02:23PM 47.2575 -114.8663 112° Southeast  Level FlightAware Approximate
02:24PM 47.2254 -114.7485 112° Southeast  Level FlightAware Approximate
02:25PM 47.1914 -114.6320 110° East  Level FlightAware Approximate
02:26PM 47.1580 -114.5159 126° Southeast  Level FlightAware Approximate
02:27PM 47.1069 -114.4138 126° Southeast  Level FlightAware Approximate
02:28PM 47.0529 -114.3152 129° Southeast  Level FlightAware Approximate
02:29PM 46.9928 -114.2261 146° Southeast  Level FlightAware Approximate
02:30PM 46.9438 -114.1375 126° Southeast  Level FlightAware Approximate
02:31PM 46.9163 -114.0906 146° Southeast  Level Estimated
02:32PM 46.9163 -114.0906 146° Southeast  Level Estimated
02:33PM 46.9163 -114.0906 146° Southeast  Level Estimated
02:34PM 46.9163 -114.0906 146° Southeast  Level Estimated
02:35PM 46.9163 -114.0906 146° Southeast  Level Estimated